sensor_id;sensor_type;location;lat;lon;timestamp;P1;durP1;ratioP1;P2;durP2;ratioP2
75649;SDS011;64245;51.282;22.494;2023-02-05T00:01:23;5.60;;;2.53;;
75649;SDS011;64245;51.282;22.494;2023-02-05T00:03:49;4.57;;;2.08;;
75649;SDS011;64245;51.282;22.494;2023-02-05T00:06:15;6.80;;;1.50;;
75649;SDS011;64245;51.282;22.494;2023-02-05T00:08:40;4.00;;;2.03;;
75649;SDS011;64245;51.282;22.494;2023-02-05T00:11:06;2.97;;;1.42;;
75649;SDS011;64245;51.282;22.494;2023-02-05T00:13:34;4.85;;;2.03;;
75649;SDS011;64245;51.282;22.494;2023-02-05T00:16:05;2.92;;;1.35;;
75649;SDS011;64245;51.282;22.494;2023-02-05T00:18:32;5.60;;;1.50;;
75649;SDS011;64245;51.282;22.494;2023-02-05T00:20:58;3.25;;;2.10;;
75649;SDS011;64245;51.282;22.494;2023-02-05T00:23:23;5.05;;;2.17;;
75649;SDS011;64245;51.282;22.494;2023-02-05T00:25:49;4.30;;;1.55;;
75649;SDS011;64245;51.282;22.494;2023-02-05T00:28:14;2.55;;;2.20;;
75649;SDS011;64245;51.282;22.494;2023-02-05T00:30:40;4.05;;;1.98;;
75649;SDS011;64245;51.282;22.494;2023-02-05T00:33:06;5.07;;;1.63;;
75649;SDS011;64245;51.282;22.494;2023-02-05T00:35:31;4.72;;;1.90;;
75649;SDS011;64245;51.282;22.494;2023-02-05T00:37:57;3.60;;;1.60;;
75649;SDS011;64245;51.282;22.494;2023-02-05T00:40:23;3.97;;;2.05;;
75649;SDS011;64245;51.282;22.494;2023-02-05T00:42:48;4.72;;;1.95;;
75649;SDS011;64245;51.282;22.494;2023-02-05T00:45:14;2.25;;;1.52;;
75649;SDS011;64245;51.282;22.494;2023-02-05T00:47:40;4.10;;;2.10;;
75649;SDS011;64245;51.282;22.494;2023-02-05T00:50:05;5.43;;;2.38;;
75649;SDS011;64245;51.282;22.494;2023-02-05T00:52:31;4.68;;;2.20;;
75649;SDS011;64245;51.282;22.494;2023-02-05T00:54:57;2.75;;;1.45;;
75649;SDS011;64245;51.282;22.494;2023-02-05T00:57:22;5.57;;;2.70;;
75649;SDS011;64245;51.282;22.494;2023-02-05T00:59:50;4.53;;;2.08;;
75649;SDS011;64245;51.282;22.494;2023-02-05T01:02:17;4.55;;;2.00;;
75649;SDS011;64245;51.282;22.494;2023-02-05T01:04:49;5.07;;;1.40;;
75649;SDS011;64245;51.282;22.494;2023-02-05T01:07:16;5.78;;;2.40;;
75649;SDS011;64245;51.282;22.494;2023-02-05T01:09:42;5.07;;;2.13;;
75649;SDS011;64245;51.282;22.494;2023-02-05T01:12:08;3.38;;;1.70;;
75649;SDS011;64245;51.282;22.494;2023-02-05T01:14:34;7.43;;;2.63;;
75649;SDS011;64245;51.282;22.494;2023-02-05T01:16:59;5.38;;;2.72;;
75649;SDS011;64245;51.282;22.494;2023-02-05T01:19:25;5.35;;;2.90;;
75649;SDS011;64245;51.282;22.494;2023-02-05T01:21:51;6.43;;;2.97;;
75649;SDS011;64245;51.282;22.494;2023-02-05T01:24:17;5.18;;;2.03;;
75649;SDS011;64245;51.282;22.494;2023-02-05T01:26:42;2.08;;;1.20;;
75649;SDS011;64245;51.282;22.494;2023-02-05T01:29:08;3.33;;;2.15;;
75649;SDS011;64245;51.282;22.494;2023-02-05T01:31:34;4.70;;;1.77;;
75649;SDS011;64245;51.282;22.494;2023-02-05T01:33:59;3.72;;;2.00;;
75649;SDS011;64245;51.282;22.494;2023-02-05T01:36:25;3.03;;;1.65;;
75649;SDS011;64245;51.282;22.494;2023-02-05T01:38:51;3.20;;;2.05;;
75649;SDS011;64245;51.282;22.494;2023-02-05T01:41:18;5.30;;;2.65;;
75649;SDS011;64245;51.282;22.494;2023-02-05T01:46:52;4.13;;;1.80;;
75649;SDS011;64245;51.282;22.494;2023-02-05T01:49:52;2.80;;;1.33;;
75649;SDS011;64245;51.282;22.494;2023-02-05T01:52:12;2.70;;;1.00;;
75649;SDS011;64245;51.282;22.494;2023-02-05T01:54:42;4.18;;;1.45;;
75649;SDS011;64245;51.282;22.494;2023-02-05T01:57:17;2.97;;;1.70;;
75649;SDS011;64245;51.282;22.494;2023-02-05T01:59:46;5.05;;;1.88;;
75649;SDS011;64245;51.282;22.494;2023-02-05T02:02:14;3.38;;;1.85;;
75649;SDS011;64245;51.282;22.494;2023-02-05T02:07:09;4.28;;;1.95;;
75649;SDS011;64245;51.282;22.494;2023-02-05T02:09:37;2.75;;;1.20;;
75649;SDS011;64245;51.282;22.494;2023-02-05T02:12:05;4.13;;;1.55;;
75649;SDS011;64245;51.282;22.494;2023-02-05T02:14:33;3.47;;;2.03;;
75649;SDS011;64245;51.282;22.494;2023-02-05T02:17:01;3.47;;;1.92;;
75649;SDS011;64245;51.282;22.494;2023-02-05T02:19:48;3.30;;;1.73;;
75649;SDS011;64245;51.282;22.494;2023-02-05T02:27:48;4.38;;;2.15;;
75649;SDS011;64245;51.282;22.494;2023-02-05T02:32:50;2.00;;;1.20;;
75649;SDS011;64245;51.282;22.494;2023-02-05T02:37:58;4.28;;;1.98;;
75649;SDS011;64245;51.282;22.494;2023-02-05T02:40:33;4.70;;;1.77;;
75649;SDS011;64245;51.282;22.494;2023-02-05T02:43:14;4.97;;;0.88;;
75649;SDS011;64245;51.282;22.494;2023-02-05T02:45:48;2.88;;;1.17;;
75649;SDS011;64245;51.282;22.494;2023-02-05T02:48:20;4.75;;;1.80;;
75649;SDS011;64245;51.282;22.494;2023-02-05T02:50:49;3.17;;;1.70;;
75649;SDS011;64245;51.282;22.494;2023-02-05T02:53:19;3.28;;;1.40;;
75649;SDS011;64245;51.282;22.494;2023-02-05T02:55:48;3.67;;;1.77;;
75649;SDS011;64245;51.282;22.494;2023-02-05T02:58:22;2.40;;;1.80;;
75649;SDS011;64245;51.282;22.494;2023-02-05T03:00:52;3.60;;;1.80;;
75649;SDS011;64245;51.282;22.494;2023-02-05T03:03:19;3.97;;;2.10;;
75649;SDS011;64245;51.282;22.494;2023-02-05T03:05:47;4.50;;;1.95;;
75649;SDS011;64245;51.282;22.494;2023-02-05T03:08:24;3.15;;;1.23;;
75649;SDS011;64245;51.282;22.494;2023-02-05T03:10:55;2.42;;;1.45;;
75649;SDS011;64245;51.282;22.494;2023-02-05T03:13:26;3.33;;;1.52;;
75649;SDS011;64245;51.282;22.494;2023-02-05T03:15:52;3.55;;;1.17;;
75649;SDS011;64245;51.282;22.494;2023-02-05T03:18:17;4.40;;;2.00;;
75649;SDS011;64245;51.282;22.494;2023-02-05T03:20:45;2.72;;;1.52;;
75649;SDS011;64245;51.282;22.494;2023-02-05T03:23:16;4.45;;;1.70;;
75649;SDS011;64245;51.282;22.494;2023-02-05T03:25:42;2.67;;;1.27;;
75649;SDS011;64245;51.282;22.494;2023-02-05T03:28:08;2.47;;;1.50;;
75649;SDS011;64245;51.282;22.494;2023-02-05T03:31:12;3.15;;;1.30;;
75649;SDS011;64245;51.282;22.494;2023-02-05T03:33:50;3.28;;;1.48;;
75649;SDS011;64245;51.282;22.494;2023-02-05T03:36:40;2.53;;;1.30;;
75649;SDS011;64245;51.282;22.494;2023-02-05T03:39:22;2.53;;;1.25;;
75649;SDS011;64245;51.282;22.494;2023-02-05T03:44:55;3.47;;;2.05;;
75649;SDS011;64245;51.282;22.494;2023-02-05T03:50:09;3.08;;;1.60;;
75649;SDS011;64245;51.282;22.494;2023-02-05T03:52:44;2.90;;;1.30;;
75649;SDS011;64245;51.282;22.494;2023-02-05T03:55:18;2.08;;;1.38;;
75649;SDS011;64245;51.282;22.494;2023-02-05T03:57:50;3.75;;;1.58;;
75649;SDS011;64245;51.282;22.494;2023-02-05T04:00:21;3.28;;;0.98;;
75649;SDS011;64245;51.282;22.494;2023-02-05T04:02:48;2.78;;;1.00;;
75649;SDS011;64245;51.282;22.494;2023-02-05T04:05:14;2.42;;;1.60;;
75649;SDS011;64245;51.282;22.494;2023-02-05T04:07:40;7.25;;;1.30;;
75649;SDS011;64245;51.282;22.494;2023-02-05T04:10:05;3.13;;;1.23;;
75649;SDS011;64245;51.282;22.494;2023-02-05T04:12:31;2.63;;;1.58;;
75649;SDS011;64245;51.282;22.494;2023-02-05T04:14:57;2.72;;;1.30;;
75649;SDS011;64245;51.282;22.494;2023-02-05T04:17:23;2.47;;;1.00;;
75649;SDS011;64245;51.282;22.494;2023-02-05T04:19:48;2.95;;;1.42;;
75649;SDS011;64245;51.282;22.494;2023-02-05T04:22:14;3.25;;;1.65;;
75649;SDS011;64245;51.282;22.494;2023-02-05T04:24:39;2.55;;;1.77;;
75649;SDS011;64245;51.282;22.494;2023-02-05T04:27:05;2.92;;;1.55;;
75649;SDS011;64245;51.282;22.494;2023-02-05T04:29:31;2.97;;;1.40;;
75649;SDS011;64245;51.282;22.494;2023-02-05T04:31:56;3.35;;;1.17;;
75649;SDS011;64245;51.282;22.494;2023-02-05T04:34:22;2.72;;;1.50;;
75649;SDS011;64245;51.282;22.494;2023-02-05T04:36:48;2.13;;;1.20;;
75649;SDS011;64245;51.282;22.494;2023-02-05T04:39:13;1.88;;;1.17;;
75649;SDS011;64245;51.282;22.494;2023-02-05T04:41:39;2.83;;;1.52;;
75649;SDS011;64245;51.282;22.494;2023-02-05T04:44:04;3.05;;;1.52;;
75649;SDS011;64245;51.282;22.494;2023-02-05T04:46:31;2.75;;;1.63;;
75649;SDS011;64245;51.282;22.494;2023-02-05T04:48:56;2.38;;;1.35;;
75649;SDS011;64245;51.282;22.494;2023-02-05T04:51:22;1.15;;;0.68;;
75649;SDS011;64245;51.282;22.494;2023-02-05T04:53:47;2.72;;;1.05;;
75649;SDS011;64245;51.282;22.494;2023-02-05T04:56:15;4.03;;;1.95;;
75649;SDS011;64245;51.282;22.494;2023-02-05T04:58:41;4.88;;;2.05;;
75649;SDS011;64245;51.282;22.494;2023-02-05T05:01:12;4.68;;;1.95;;
75649;SDS011;64245;51.282;22.494;2023-02-05T05:03:39;1.73;;;1.17;;
75649;SDS011;64245;51.282;22.494;2023-02-05T05:06:04;2.97;;;1.17;;
75649;SDS011;64245;51.282;22.494;2023-02-05T05:08:30;4.25;;;1.73;;
75649;SDS011;64245;51.282;22.494;2023-02-05T05:10:56;3.05;;;1.73;;
75649;SDS011;64245;51.282;22.494;2023-02-05T05:13:22;3.70;;;1.85;;
75649;SDS011;64245;51.282;22.494;2023-02-05T05:15:54;3.22;;;1.75;;
75649;SDS011;64245;51.282;22.494;2023-02-05T05:18:20;4.03;;;1.65;;
75649;SDS011;64245;51.282;22.494;2023-02-05T05:20:46;4.63;;;2.03;;
75649;SDS011;64245;51.282;22.494;2023-02-05T05:23:12;5.13;;;2.05;;
75649;SDS011;64245;51.282;22.494;2023-02-05T05:25:41;3.58;;;2.00;;
75649;SDS011;64245;51.282;22.494;2023-02-05T05:28:11;5.22;;;2.03;;
75649;SDS011;64245;51.282;22.494;2023-02-05T05:30:38;2.67;;;1.60;;
75649;SDS011;64245;51.282;22.494;2023-02-05T05:33:04;3.45;;;1.33;;
75649;SDS011;64245;51.282;22.494;2023-02-05T05:35:30;2.53;;;1.38;;
75649;SDS011;64245;51.282;22.494;2023-02-05T05:37:56;4.25;;;1.67;;
75649;SDS011;64245;51.282;22.494;2023-02-05T05:40:23;3.63;;;1.75;;
75649;SDS011;64245;51.282;22.494;2023-02-05T05:43:11;4.32;;;1.88;;
75649;SDS011;64245;51.282;22.494;2023-02-05T05:45:57;3.35;;;1.42;;
75649;SDS011;64245;51.282;22.494;2023-02-05T05:48:22;3.90;;;1.70;;
75649;SDS011;64245;51.282;22.494;2023-02-05T05:50:48;4.90;;;1.83;;
75649;SDS011;64245;51.282;22.494;2023-02-05T05:53:14;3.25;;;1.67;;
75649;SDS011;64245;51.282;22.494;2023-02-05T05:55:40;4.75;;;1.65;;
75649;SDS011;64245;51.282;22.494;2023-02-05T05:58:06;2.83;;;1.65;;
75649;SDS011;64245;51.282;22.494;2023-02-05T06:00:33;2.67;;;1.70;;
75649;SDS011;64245;51.282;22.494;2023-02-05T06:02:58;3.85;;;1.60;;
75649;SDS011;64245;51.282;22.494;2023-02-05T06:05:24;5.07;;;2.28;;
75649;SDS011;64245;51.282;22.494;2023-02-05T06:07:50;4.95;;;2.03;;
75649;SDS011;64245;51.282;22.494;2023-02-05T06:10:16;6.35;;;2.00;;
75649;SDS011;64245;51.282;22.494;2023-02-05T06:12:41;8.20;;;2.17;;
75649;SDS011;64245;51.282;22.494;2023-02-05T06:15:07;4.50;;;1.67;;
75649;SDS011;64245;51.282;22.494;2023-02-05T06:17:33;3.72;;;1.75;;
75649;SDS011;64245;51.282;22.494;2023-02-05T06:19:59;4.60;;;2.30;;
75649;SDS011;64245;51.282;22.494;2023-02-05T06:22:24;7.55;;;2.30;;
75649;SDS011;64245;51.282;22.494;2023-02-05T06:24:50;4.55;;;1.98;;
75649;SDS011;64245;51.282;22.494;2023-02-05T06:27:16;1.60;;;1.05;;
75649;SDS011;64245;51.282;22.494;2023-02-05T06:29:41;4.03;;;2.30;;
75649;SDS011;64245;51.282;22.494;2023-02-05T06:32:07;7.47;;;3.42;;
75649;SDS011;64245;51.282;22.494;2023-02-05T06:34:33;5.15;;;2.47;;
75649;SDS011;64245;51.282;22.494;2023-02-05T06:36:58;3.08;;;1.50;;
75649;SDS011;64245;51.282;22.494;2023-02-05T06:39:24;7.35;;;2.10;;
75649;SDS011;64245;51.282;22.494;2023-02-05T06:41:50;4.47;;;2.28;;
75649;SDS011;64245;51.282;22.494;2023-02-05T06:44:15;4.85;;;2.58;;
75649;SDS011;64245;51.282;22.494;2023-02-05T06:46:41;5.15;;;2.40;;
75649;SDS011;64245;51.282;22.494;2023-02-05T06:49:07;3.85;;;2.13;;
75649;SDS011;64245;51.282;22.494;2023-02-05T06:51:32;5.68;;;2.55;;
75649;SDS011;64245;51.282;22.494;2023-02-05T06:53:58;2.72;;;1.40;;
75649;SDS011;64245;51.282;22.494;2023-02-05T06:56:24;8.07;;;2.70;;
75649;SDS011;64245;51.282;22.494;2023-02-05T06:58:50;9.35;;;3.78;;
75649;SDS011;64245;51.282;22.494;2023-02-05T07:01:16;1.48;;;1.33;;
75649;SDS011;64245;51.282;22.494;2023-02-05T07:03:42;6.35;;;2.78;;
75649;SDS011;64245;51.282;22.494;2023-02-05T07:06:07;5.40;;;2.60;;
75649;SDS011;64245;51.282;22.494;2023-02-05T07:08:33;3.60;;;2.42;;
75649;SDS011;64245;51.282;22.494;2023-02-05T07:10:59;5.95;;;2.88;;
75649;SDS011;64245;51.282;22.494;2023-02-05T07:13:25;6.10;;;2.38;;
75649;SDS011;64245;51.282;22.494;2023-02-05T07:15:51;6.60;;;3.42;;
75649;SDS011;64245;51.282;22.494;2023-02-05T07:18:17;7.35;;;3.47;;
75649;SDS011;64245;51.282;22.494;2023-02-05T07:20:42;7.10;;;2.58;;
75649;SDS011;64245;51.282;22.494;2023-02-05T07:23:08;7.25;;;2.53;;
75649;SDS011;64245;51.282;22.494;2023-02-05T07:25:34;9.00;;;3.13;;
75649;SDS011;64245;51.282;22.494;2023-02-05T07:28:06;6.70;;;2.58;;
75649;SDS011;64245;51.282;22.494;2023-02-05T07:30:35;6.40;;;2.75;;
75649;SDS011;64245;51.282;22.494;2023-02-05T07:33:01;9.13;;;3.28;;
75649;SDS011;64245;51.282;22.494;2023-02-05T07:35:28;9.77;;;3.10;;
75649;SDS011;64245;51.282;22.494;2023-02-05T07:37:55;5.25;;;2.97;;
75649;SDS011;64245;51.282;22.494;2023-02-05T07:40:20;4.18;;;2.33;;
75649;SDS011;64245;51.282;22.494;2023-02-05T07:42:46;5.82;;;2.80;;
75649;SDS011;64245;51.282;22.494;2023-02-05T07:45:12;6.75;;;2.85;;
75649;SDS011;64245;51.282;22.494;2023-02-05T07:47:37;5.38;;;2.63;;
75649;SDS011;64245;51.282;22.494;2023-02-05T07:50:03;4.07;;;2.85;;
75649;SDS011;64245;51.282;22.494;2023-02-05T07:52:30;3.63;;;2.33;;
75649;SDS011;64245;51.282;22.494;2023-02-05T07:54:57;6.82;;;3.63;;
75649;SDS011;64245;51.282;22.494;2023-02-05T07:57:23;6.05;;;2.97;;
75649;SDS011;64245;51.282;22.494;2023-02-05T07:59:51;4.75;;;2.15;;
75649;SDS011;64245;51.282;22.494;2023-02-05T08:02:16;3.97;;;2.28;;
75649;SDS011;64245;51.282;22.494;2023-02-05T08:04:42;5.85;;;2.80;;
75649;SDS011;64245;51.282;22.494;2023-02-05T08:07:09;7.82;;;3.30;;
75649;SDS011;64245;51.282;22.494;2023-02-05T08:09:37;7.35;;;2.33;;
75649;SDS011;64245;51.282;22.494;2023-02-05T08:12:02;6.22;;;2.17;;
75649;SDS011;64245;51.282;22.494;2023-02-05T08:14:28;6.78;;;2.97;;
75649;SDS011;64245;51.282;22.494;2023-02-05T08:16:55;6.32;;;3.35;;
75649;SDS011;64245;51.282;22.494;2023-02-05T08:19:23;9.32;;;3.45;;
75649;SDS011;64245;51.282;22.494;2023-02-05T08:21:49;6.60;;;2.85;;
75649;SDS011;64245;51.282;22.494;2023-02-05T08:24:15;7.43;;;3.15;;
75649;SDS011;64245;51.282;22.494;2023-02-05T08:26:41;6.43;;;3.00;;
75649;SDS011;64245;51.282;22.494;2023-02-05T08:29:07;8.50;;;2.45;;
75649;SDS011;64245;51.282;22.494;2023-02-05T08:31:33;7.03;;;3.45;;
75649;SDS011;64245;51.282;22.494;2023-02-05T08:34:00;8.07;;;3.38;;
75649;SDS011;64245;51.282;22.494;2023-02-05T08:36:26;7.25;;;2.85;;
75649;SDS011;64245;51.282;22.494;2023-02-05T08:38:52;5.50;;;3.10;;
75649;SDS011;64245;51.282;22.494;2023-02-05T08:41:17;4.88;;;2.40;;
75649;SDS011;64245;51.282;22.494;2023-02-05T08:43:45;6.35;;;2.75;;
75649;SDS011;64245;51.282;22.494;2023-02-05T08:46:13;9.75;;;3.08;;
75649;SDS011;64245;51.282;22.494;2023-02-05T08:48:40;5.10;;;2.72;;
75649;SDS011;64245;51.282;22.494;2023-02-05T08:51:08;6.28;;;2.97;;
75649;SDS011;64245;51.282;22.494;2023-02-05T08:53:34;4.95;;;2.42;;
75649;SDS011;64245;51.282;22.494;2023-02-05T08:56:00;3.30;;;1.85;;
75649;SDS011;64245;51.282;22.494;2023-02-05T08:58:27;7.65;;;3.17;;
75649;SDS011;64245;51.282;22.494;2023-02-05T09:00:58;3.60;;;1.95;;
75649;SDS011;64245;51.282;22.494;2023-02-05T09:03:25;4.82;;;3.58;;
75649;SDS011;64245;51.282;22.494;2023-02-05T09:05:51;6.13;;;2.50;;
75649;SDS011;64245;51.282;22.494;2023-02-05T09:08:16;4.30;;;2.58;;
75649;SDS011;64245;51.282;22.494;2023-02-05T09:10:43;5.25;;;2.53;;
75649;SDS011;64245;51.282;22.494;2023-02-05T09:13:09;7.30;;;2.60;;
75649;SDS011;64245;51.282;22.494;2023-02-05T09:15:39;8.00;;;3.20;;
75649;SDS011;64245;51.282;22.494;2023-02-05T09:18:06;6.47;;;3.15;;
75649;SDS011;64245;51.282;22.494;2023-02-05T09:20:32;8.38;;;3.58;;
75649;SDS011;64245;51.282;22.494;2023-02-05T09:22:59;6.28;;;2.95;;
75649;SDS011;64245;51.282;22.494;2023-02-05T09:25:25;7.55;;;3.42;;
75649;SDS011;64245;51.282;22.494;2023-02-05T09:27:51;8.23;;;4.30;;
75649;SDS011;64245;51.282;22.494;2023-02-05T09:30:16;7.68;;;3.80;;
75649;SDS011;64245;51.282;22.494;2023-02-05T09:32:42;10.95;;;3.47;;
75649;SDS011;64245;51.282;22.494;2023-02-05T09:35:08;7.53;;;3.83;;
75649;SDS011;64245;51.282;22.494;2023-02-05T09:37:34;6.53;;;3.88;;
75649;SDS011;64245;51.282;22.494;2023-02-05T09:40:00;6.35;;;3.30;;
75649;SDS011;64245;51.282;22.494;2023-02-05T09:42:42;9.32;;;3.83;;
75649;SDS011;64245;51.282;22.494;2023-02-05T09:51:02;7.53;;;3.47;;
75649;SDS011;64245;51.282;22.494;2023-02-05T09:53:34;9.40;;;2.95;;
75649;SDS011;64245;51.282;22.494;2023-02-05T09:56:05;7.70;;;3.42;;
75649;SDS011;64245;51.282;22.494;2023-02-05T09:58:33;7.93;;;3.13;;
75649;SDS011;64245;51.282;22.494;2023-02-05T10:22:43;6.57;;;3.35;;
75649;SDS011;64245;51.282;22.494;2023-02-05T10:28:36;8.00;;;3.30;;
75649;SDS011;64245;51.282;22.494;2023-02-05T10:34:55;6.85;;;3.10;;
75649;SDS011;64245;51.282;22.494;2023-02-05T10:36:55;4.00;;;2.00;;
75649;SDS011;64245;51.282;22.494;2023-02-05T10:39:21;8.82;;;4.32;;
75649;SDS011;64245;51.282;22.494;2023-02-05T10:41:52;8.63;;;3.78;;
75649;SDS011;64245;51.282;22.494;2023-02-05T10:44:25;4.93;;;2.67;;
75649;SDS011;64245;51.282;22.494;2023-02-05T10:46:52;6.20;;;3.38;;
75649;SDS011;64245;51.282;22.494;2023-02-05T10:50:13;8.23;;;3.35;;
75649;SDS011;64245;51.282;22.494;2023-02-05T10:52:28;4.38;;;2.75;;
75649;SDS011;64245;51.282;22.494;2023-02-05T10:54:55;10.15;;;4.70;;
75649;SDS011;64245;51.282;22.494;2023-02-05T10:57:21;7.50;;;3.85;;
75649;SDS011;64245;51.282;22.494;2023-02-05T10:59:55;7.03;;;3.92;;
75649;SDS011;64245;51.282;22.494;2023-02-05T11:02:33;5.20;;;2.03;;
75649;SDS011;64245;51.282;22.494;2023-02-05T11:05:07;6.38;;;3.22;;
75649;SDS011;64245;51.282;22.494;2023-02-05T11:07:44;9.70;;;3.47;;
75649;SDS011;64245;51.282;22.494;2023-02-05T11:12:47;6.97;;;3.63;;
75649;SDS011;64245;51.282;22.494;2023-02-05T11:15:19;6.22;;;3.03;;
75649;SDS011;64245;51.282;22.494;2023-02-05T11:17:51;7.50;;;3.55;;
75649;SDS011;64245;51.282;22.494;2023-02-05T11:20:21;5.75;;;3.05;;
75649;SDS011;64245;51.282;22.494;2023-02-05T11:25:47;6.75;;;3.03;;
75649;SDS011;64245;51.282;22.494;2023-02-05T11:28:19;6.20;;;3.00;;
75649;SDS011;64245;51.282;22.494;2023-02-05T11:30:48;4.32;;;2.65;;
75649;SDS011;64245;51.282;22.494;2023-02-05T11:35:53;5.82;;;2.55;;
75649;SDS011;64245;51.282;22.494;2023-02-05T11:38:23;7.65;;;4.15;;
75649;SDS011;64245;51.282;22.494;2023-02-05T11:41:01;3.90;;;2.10;;
75649;SDS011;64245;51.282;22.494;2023-02-05T11:43:31;9.55;;;4.38;;
75649;SDS011;64245;51.282;22.494;2023-02-05T11:45:59;11.43;;;4.20;;
75649;SDS011;64245;51.282;22.494;2023-02-05T11:51:03;8.07;;;3.28;;
75649;SDS011;64245;51.282;22.494;2023-02-05T11:53:33;9.48;;;5.22;;
75649;SDS011;64245;51.282;22.494;2023-02-05T11:56:06;10.80;;;4.60;;
75649;SDS011;64245;51.282;22.494;2023-02-05T11:58:35;10.77;;;3.65;;
75649;SDS011;64245;51.282;22.494;2023-02-05T12:01:20;8.40;;;3.38;;
75649;SDS011;64245;51.282;22.494;2023-02-05T12:04:09;14.55;;;4.15;;
75649;SDS011;64245;51.282;22.494;2023-02-05T12:06:52;12.05;;;3.60;;
75649;SDS011;64245;51.282;22.494;2023-02-05T12:09:22;11.52;;;5.28;;
75649;SDS011;64245;51.282;22.494;2023-02-05T12:15:09;8.05;;;3.17;;
75649;SDS011;64245;51.282;22.494;2023-02-05T12:21:02;11.80;;;4.15;;
75649;SDS011;64245;51.282;22.494;2023-02-05T12:24:00;10.55;;;4.00;;
75649;SDS011;64245;51.282;22.494;2023-02-05T12:26:43;6.88;;;2.88;;
75649;SDS011;64245;51.282;22.494;2023-02-05T12:39:45;13.32;;;4.28;;
75649;SDS011;64245;51.282;22.494;2023-02-05T12:42:23;10.00;;;2.92;;
75649;SDS011;64245;51.282;22.494;2023-02-05T12:44:58;13.88;;;5.38;;
75649;SDS011;64245;51.282;22.494;2023-02-05T12:51:12;7.22;;;2.55;;
75649;SDS011;64245;51.282;22.494;2023-02-05T12:56:38;10.10;;;3.95;;
75649;SDS011;64245;51.282;22.494;2023-02-05T13:01:55;10.75;;;4.05;;
75649;SDS011;64245;51.282;22.494;2023-02-05T13:04:31;6.53;;;3.28;;
75649;SDS011;64245;51.282;22.494;2023-02-05T13:09:55;4.20;;;2.50;;
75649;SDS011;64245;51.282;22.494;2023-02-05T13:12:25;4.28;;;2.30;;
75649;SDS011;64245;51.282;22.494;2023-02-05T13:15:03;7.80;;;4.22;;
75649;SDS011;64245;51.282;22.494;2023-02-05T13:17:40;7.57;;;3.65;;
75649;SDS011;64245;51.282;22.494;2023-02-05T13:20:25;7.30;;;3.42;;
75649;SDS011;64245;51.282;22.494;2023-02-05T13:23:16;5.60;;;2.95;;
75649;SDS011;64245;51.282;22.494;2023-02-05T13:26:02;6.03;;;2.88;;
75649;SDS011;64245;51.282;22.494;2023-02-05T13:28:48;9.38;;;4.00;;
75649;SDS011;64245;51.282;22.494;2023-02-05T13:31:34;8.00;;;3.58;;
75649;SDS011;64245;51.282;22.494;2023-02-05T13:34:04;6.22;;;2.92;;
75649;SDS011;64245;51.282;22.494;2023-02-05T13:42:32;9.38;;;3.08;;
75649;SDS011;64245;51.282;22.494;2023-02-05T13:45:06;8.07;;;3.90;;
75649;SDS011;64245;51.282;22.494;2023-02-05T13:48:06;3.90;;;2.33;;
75649;SDS011;64245;51.282;22.494;2023-02-05T13:56:34;6.28;;;3.00;;
75649;SDS011;64245;51.282;22.494;2023-02-05T13:59:16;7.20;;;3.92;;
75649;SDS011;64245;51.282;22.494;2023-02-05T14:01:58;7.32;;;2.42;;
75649;SDS011;64245;51.282;22.494;2023-02-05T14:07:08;8.63;;;4.72;;
75649;SDS011;64245;51.282;22.494;2023-02-05T14:09:42;9.40;;;4.93;;
75649;SDS011;64245;51.282;22.494;2023-02-05T14:12:29;9.45;;;4.30;;
75649;SDS011;64245;51.282;22.494;2023-02-05T14:22:49;8.40;;;3.35;;
75649;SDS011;64245;51.282;22.494;2023-02-05T14:28:21;8.75;;;3.65;;
75649;SDS011;64245;51.282;22.494;2023-02-05T14:30:58;6.78;;;3.53;;
75649;SDS011;64245;51.282;22.494;2023-02-05T14:33:25;7.65;;;3.60;;
75649;SDS011;64245;51.282;22.494;2023-02-05T14:38:43;8.05;;;3.58;;
75649;SDS011;64245;51.282;22.494;2023-02-05T14:41:11;8.10;;;3.55;;
75649;SDS011;64245;51.282;22.494;2023-02-05T14:43:40;9.95;;;4.25;;
75649;SDS011;64245;51.282;22.494;2023-02-05T14:48:45;8.82;;;3.75;;
75649;SDS011;64245;51.282;22.494;2023-02-05T14:51:16;9.82;;;3.90;;
75649;SDS011;64245;51.282;22.494;2023-02-05T14:53:53;6.43;;;3.50;;
75649;SDS011;64245;51.282;22.494;2023-02-05T14:56:23;7.25;;;4.30;;
75649;SDS011;64245;51.282;22.494;2023-02-05T14:58:56;11.02;;;4.32;;
75649;SDS011;64245;51.282;22.494;2023-02-05T15:01:29;9.45;;;4.32;;
75649;SDS011;64245;51.282;22.494;2023-02-05T15:03:59;10.40;;;3.85;;
75649;SDS011;64245;51.282;22.494;2023-02-05T15:06:27;11.40;;;4.25;;
75649;SDS011;64245;51.282;22.494;2023-02-05T15:09:09;11.50;;;4.30;;
75649;SDS011;64245;51.282;22.494;2023-02-05T15:11:53;8.30;;;3.47;;
75649;SDS011;64245;51.282;22.494;2023-02-05T15:14:39;11.30;;;4.55;;
75649;SDS011;64245;51.282;22.494;2023-02-05T15:22:24;6.72;;;3.30;;
75649;SDS011;64245;51.282;22.494;2023-02-05T15:24:50;9.93;;;3.45;;
75649;SDS011;64245;51.282;22.494;2023-02-05T15:27:20;8.82;;;3.88;;
75649;SDS011;64245;51.282;22.494;2023-02-05T15:29:53;9.00;;;2.90;;
75649;SDS011;64245;51.282;22.494;2023-02-05T15:32:24;10.40;;;4.30;;
75649;SDS011;64245;51.282;22.494;2023-02-05T15:34:55;7.97;;;4.00;;
75649;SDS011;64245;51.282;22.494;2023-02-05T15:37:27;9.25;;;3.70;;
75649;SDS011;64245;51.282;22.494;2023-02-05T15:39:58;7.43;;;3.63;;
75649;SDS011;64245;51.282;22.494;2023-02-05T15:42:31;7.10;;;3.40;;
75649;SDS011;64245;51.282;22.494;2023-02-05T15:50:44;8.80;;;3.63;;
75649;SDS011;64245;51.282;22.494;2023-02-05T15:53:42;8.52;;;3.33;;
75649;SDS011;64245;51.282;22.494;2023-02-05T15:56:21;9.00;;;4.82;;
75649;SDS011;64245;51.282;22.494;2023-02-05T15:58:51;8.88;;;3.83;;
75649;SDS011;64245;51.282;22.494;2023-02-05T16:01:23;8.80;;;3.53;;
75649;SDS011;64245;51.282;22.494;2023-02-05T16:03:52;10.18;;;4.22;;
75649;SDS011;64245;51.282;22.494;2023-02-05T16:06:19;8.35;;;4.35;;
75649;SDS011;64245;51.282;22.494;2023-02-05T16:08:46;9.40;;;3.95;;
75649;SDS011;64245;51.282;22.494;2023-02-05T16:11:23;9.52;;;4.35;;
75649;SDS011;64245;51.282;22.494;2023-02-05T16:14:09;8.40;;;4.57;;
75649;SDS011;64245;51.282;22.494;2023-02-05T16:16:38;12.55;;;4.45;;
75649;SDS011;64245;51.282;22.494;2023-02-05T16:19:10;10.02;;;4.05;;
75649;SDS011;64245;51.282;22.494;2023-02-05T16:21:45;11.88;;;4.57;;
75649;SDS011;64245;51.282;22.494;2023-02-05T16:24:25;9.73;;;4.38;;
75649;SDS011;64245;51.282;22.494;2023-02-05T16:27:02;13.57;;;4.85;;
75649;SDS011;64245;51.282;22.494;2023-02-05T16:29:36;7.70;;;4.20;;
75649;SDS011;64245;51.282;22.494;2023-02-05T16:32:06;9.85;;;4.03;;
75649;SDS011;64245;51.282;22.494;2023-02-05T16:34:40;12.30;;;4.00;;
75649;SDS011;64245;51.282;22.494;2023-02-05T16:37:06;10.45;;;3.78;;
75649;SDS011;64245;51.282;22.494;2023-02-05T16:39:48;8.93;;;4.38;;
75649;SDS011;64245;51.282;22.494;2023-02-05T16:47:33;9.05;;;3.75;;
75649;SDS011;64245;51.282;22.494;2023-02-05T16:50:00;11.05;;;5.03;;
75649;SDS011;64245;51.282;22.494;2023-02-05T16:55:06;15.10;;;5.72;;
75649;SDS011;64245;51.282;22.494;2023-02-05T16:57:41;16.30;;;5.82;;
75649;SDS011;64245;51.282;22.494;2023-02-05T17:00:18;13.30;;;6.38;;
75649;SDS011;64245;51.282;22.494;2023-02-05T17:02:46;13.75;;;6.07;;
75649;SDS011;64245;51.282;22.494;2023-02-05T17:05:24;18.05;;;6.38;;
75649;SDS011;64245;51.282;22.494;2023-02-05T17:08:02;13.63;;;6.40;;
75649;SDS011;64245;51.282;22.494;2023-02-05T17:10:32;11.55;;;6.45;;
75649;SDS011;64245;51.282;22.494;2023-02-05T17:16:18;14.32;;;6.10;;
75649;SDS011;64245;51.282;22.494;2023-02-05T17:19:01;12.93;;;5.78;;